< Typhoon 201924 2019 Season Typhoon 201926 >
Typhoon 201925 (FENGSHEN)
General InformationTrack Information on Google MapsDetailed Wind InformationForecast History on Google MapsAccess Analytics MapList of All Images || NewsDisaster Info.WeblogTrackbackTyphoon FrontTwiphoonTyphoon Now!Typhoon ImaginationJMA Disaster Info. XMLResourceGoogle EarthGE AnimationAtom FeedGeoJSON
Detalied Best Track (Time Zone = UTC)
Year Month Day Hour Lat. Long. Pressure (hPa) Wind (kt) Class Image Chart
2019 11 9 18 12.6 173.4 1004 0 2 Image Chart
2019 11 10 00 13.0 171.9 1006 0 2 Image Chart
2019 11 10 06 13.3 170.5 1004 0 2 Image Chart
2019 11 10 12 13.3 169.5 1006 0 2 Image Chart
2019 11 10 18 13.3 168.9 1004 0 2 Image Chart
2019 11 11 00 13.5 168.2 1006 0 2 Image Chart
2019 11 11 06 14.0 166.6 1004 0 2 Image Chart
2019 11 11 12 14.1 165.4 1004 0 2 Image Chart
2019 11 11 18 14.7 164.1 1004 0 2 Image Chart
2019 11 12 00 14.8 162.5 1000 35 3 Image Chart
2019 11 12 06 15.4 161.1 1000 35 3 Image Chart
2019 11 12 12 16.2 159.6 1000 35 3 Image Chart
2019 11 12 18 16.8 158.0 998 40 3 Image Chart
2019 11 13 00 17.2 156.0 998 40 3 Image Chart
2019 11 13 06 16.9 154.5 998 40 3 Image Chart
2019 11 13 12 16.7 153.2 996 45 3 Image Chart
2019 11 13 18 16.7 151.8 992 50 4 Image Chart
2019 11 14 00 16.8 149.9 992 50 4 Image Chart
2019 11 14 06 16.9 148.2 992 50 4 Image Chart
2019 11 14 12 17.3 146.4 990 55 4 Image Chart
2019 11 14 18 18.1 145.0 985 60 4 Image Chart
2019 11 15 00 19.1 143.7 975 75 5 Image Chart
2019 11 15 06 20.1 142.7 965 85 5 Image Chart
2019 11 15 12 21.1 142.2 965 85 5 Image Chart
2019 11 15 18 22.4 142.5 965 85 5 Image Chart
2019 11 16 00 23.7 143.2 965 85 5 Image Chart
2019 11 16 06 24.9 144.7 965 85 5 Image Chart
2019 11 16 12 25.9 146.7 965 85 5 Image Chart
2019 11 16 18 26.6 149.2 970 80 5 Image Chart
2019 11 17 00 26.9 152.2 980 70 5 Image Chart
2019 11 17 06 26.9 155.2 990 60 4 Image Chart
2019 11 17 12 26.2 156.7 1004 0 6 Image Chart
2019 11 17 18 25.0 157.8 1008 0 6 Image Chart
2019 11 18 00 24.0 158.5 1014 0 6 Image Chart
Japan Meteorological Agency Best Track Data | Correction Date : 2020-01-09
< Typhoon 201924 2019 Season Typhoon 201926 >

Help